KDNV

Vermilion Regional Airport

Danville, Illinois, USA
METAR KDNV 212315Z AUTO 33007KT 10SM SCT035 23/19 A2992 RMK AO2 T02290190 PWINO
Observed Flight Rules
Aug-21 @ 23:15 UTC (30 minutes ago) Visual Flight Rules
Wind Visibility Clouds
330° at 7 knots 10 miles
  • Scattered at 3,500' AGL
Temperatures Readings
Current 23°C / 73°F
Dewpoint 19°C / 66°F
Humidity 78%
Altimeter 29.92" Hg
Pressure 1013 hPa
Elevation 212
METAR KDNV 212315Z AUTO 33007KT 10SM SCT035 23/19 A2992 RMK AO2 T02290190 PWINO
Observed Flight Rules
Aug-21 @ 23:15 UTC
(30 minutes ago)
VFR
Wind Visibility
330° at 7 knots 10 miles
Clouds
  • Scattered at 3,500' AGL
Temperature Dewpoint
23°C / 73°F 19°C / 66°F
Humidity Altimeter Pressure
78% 29.92" Hg 1013 hPa